Time;durP1;ratioP1;P1;durP2;ratioP2;P2;SDS_P1;SDS_P2;PMS_P1;PMS_P2;Temp;Humidity;BMP_temperature;BMP_pressure;BME280_temperature;BME280_humidity;BME280_pressure;Samples;Min_cycle;Max_cycle;Signal;HPM_P1;HPM_P2
2022/12/29 00:01:55;;;;;;;8.45;3.65;;;;;;;;;;4934572;29;20134;-61
2022/12/29 00:04:21;;;;;;;3.58;2.92;;;;;;;;;;4935679;29;20048;-60
2022/12/29 00:06:48;;;;;;;4.00;2.88;;;;;;;;;;4938673;29;20409;-60
2022/12/29 00:09:16;;;;;;;4.63;2.63;;;;;;;;;;4939754;29;20062;-60
2022/12/29 00:11:42;;;;;;;3.72;2.30;;;;;;;;;;4923280;29;20036;-62
2022/12/29 00:16:54;;;;;;;3.00;2.45;;;;;;;;;;4938012;29;20052;-61
2022/12/29 00:35:58;;;;;;;3.35;1.80;;;;;;;;;;4937553;29;20091;-61
2022/12/29 00:44:05;;;;;;;2.08;1.60;;;;;;;;;;4920890;29;20048;-59
2022/12/29 00:46:32;;;;;;;3.30;1.42;;;;;;;;;;4920554;29;20048;-59
2022/12/29 00:51:44;;;;;;;3.15;1.60;;;;;;;;;;4920736;29;20044;-60
2022/12/29 00:54:10;;;;;;;3.75;1.58;;;;;;;;;;4920856;29;20047;-60
2022/12/29 00:56:37;;;;;;;1.73;1.52;;;;;;;;;;4937509;29;20497;-60
2022/12/29 00:59:08;;;;;;;1.77;1.58;;;;;;;;;;4920747;29;20051;-59
2022/12/29 01:01:35;;;;;;;2.75;1.25;;;;;;;;;;4937753;29;20048;-60
2022/12/29 01:04:03;;;;;;;3.00;1.45;;;;;;;;;;4920551;29;20076;-60
2022/12/29 01:06:30;;;;;;;2.55;1.50;;;;;;;;;;4937163;29;20059;-60
2022/12/29 01:11:59;;;;;;;1.83;1.50;;;;;;;;;;4863766;29;20116;-59
2022/12/29 01:14:26;;;;;;;2.17;1.25;;;;;;;;;;4926196;29;20055;-58
2022/12/29 01:16:53;;;;;;;3.33;1.38;;;;;;;;;;4937452;29;20099;-59
2022/12/29 01:19:20;;;;;;;2.53;1.30;;;;;;;;;;4938928;29;20052;-59
2022/12/29 01:21:48;;;;;;;5.93;1.52;;;;;;;;;;4938692;29;20050;-60
2022/12/29 01:24:15;;;;;;;2.92;1.48;;;;;;;;;;4938693;29;20401;-59
2022/12/29 01:26:42;;;;;;;2.75;1.33;;;;;;;;;;4921293;29;20043;-59
2022/12/29 01:29:08;;;;;;;2.67;1.60;;;;;;;;;;4939158;29;20497;-59
2022/12/29 01:31:35;;;;;;;1.60;1.50;;;;;;;;;;4921633;29;20048;-59
2022/12/29 01:34:01;;;;;;;2.97;1.40;;;;;;;;;;4939058;29;20043;-59
2022/12/29 01:36:28;;;;;;;4.60;1.40;;;;;;;;;;4921137;29;20044;-60
2022/12/29 01:38:54;;;;;;;1.98;1.50;;;;;;;;;;4939539;29;20051;-60
2022/12/29 01:41:21;;;;;;;1.55;1.27;;;;;;;;;;4922918;29;20063;-60
2022/12/29 01:43:53;;;;;;;2.13;1.73;;;;;;;;;;4922514;29;20040;-60
2022/12/29 01:46:23;;;;;;;2.47;1.70;;;;;;;;;;4922032;29;20048;-60
2022/12/29 01:48:52;;;;;;;4.63;1.63;;;;;;;;;;4921714;29;20102;-60
2022/12/29 01:51:20;;;;;;;2.78;1.52;;;;;;;;;;4920070;29;20059;-59
2022/12/29 01:53:46;;;;;;;3.60;1.70;;;;;;;;;;4920746;29;20039;-60
2022/12/29 01:56:14;;;;;;;2.45;1.60;;;;;;;;;;4919754;29;20051;-60
2022/12/29 01:58:44;;;;;;;2.45;1.50;;;;;;;;;;4919829;29;20099;-60
2022/12/29 02:01:11;;;;;;;1.60;1.40;;;;;;;;;;4919871;29;20475;-60
2022/12/29 02:03:38;;;;;;;3.58;1.60;;;;;;;;;;4937266;29;20039;-60
2022/12/29 02:06:25;;;;;;;3.35;1.80;;;;;;;;;;4920041;29;20044;-60
2022/12/29 02:08:53;;;;;;;2.72;1.60;;;;;;;;;;4899124;29;20052;-60
2022/12/29 02:11:21;;;;;;;2.00;1.40;;;;;;;;;;4940205;29;20036;-61
2022/12/29 02:13:47;;;;;;;2.05;1.42;;;;;;;;;;4939985;29;20040;-61
2022/12/29 02:16:32;;;;;;;5.50;2.22;;;;;;;;;;4938325;29;20062;-59
2022/12/29 02:19:11;;;;;;;4.25;1.80;;;;;;;;;;4919591;29;20047;-59
2022/12/29 02:21:50;;;;;;;3.08;1.33;;;;;;;;;;4919650;29;20043;-60
2022/12/29 02:24:36;;;;;;;4.22;1.80;;;;;;;;;;4936757;29;20051;-60
2022/12/29 02:27:08;;;;;;;2.53;1.27;;;;;;;;;;4919313;29;20066;-60
2022/12/29 02:29:35;;;;;;;2.17;1.83;;;;;;;;;;4919487;29;20075;-61
2022/12/29 02:32:24;;;;;;;4.57;2.45;;;;;;;;;;4919321;29;20461;-61
2022/12/29 02:34:53;;;;;;;4.03;1.58;;;;;;;;;;4919151;29;20523;-59
2022/12/29 02:37:26;;;;;;;1.45;1.35;;;;;;;;;;4918266;29;20055;-60
2022/12/29 02:40:00;;;;;;;2.67;1.50;;;;;;;;;;4935587;29;20173;-60
2022/12/29 02:42:39;;;;;;;2.80;1.65;;;;;;;;;;4935494;29;20127;-59
2022/12/29 02:45:06;;;;;;;3.35;1.60;;;;;;;;;;4934891;29;20071;-58
2022/12/29 02:47:42;;;;;;;3.92;1.60;;;;;;;;;;4935312;29;20040;-59
2022/12/29 02:50:14;;;;;;;3.42;1.80;;;;;;;;;;4918309;29;20075;-59
2022/12/29 02:52:58;;;;;;;5.30;2.38;;;;;;;;;;4918253;29;20111;-59
2022/12/29 02:55:25;;;;;;;2.97;1.57;;;;;;;;;;4921359;29;20058;-60
2022/12/29 02:58:10;;;;;;;3.42;1.90;;;;;;;;;;4920356;29;20051;-59
2022/12/29 03:00:39;;;;;;;3.67;2.00;;;;;;;;;;4902485;29;20090;-60
2022/12/29 03:03:14;;;;;;;5.20;1.88;;;;;;;;;;4934853;29;20071;-59
2022/12/29 03:06:08;;;;;;;2.38;2.00;;;;;;;;;;4917517;29;20051;-59
2022/12/29 03:08:58;;;;;;;3.10;1.80;;;;;;;;;;4918058;29;20095;-59
2022/12/29 03:17:18;;;;;;;1.95;1.50;;;;;;;;;;4917503;29;20054;-58
2022/12/29 03:19:48;;;;;;;2.10;1.77;;;;;;;;;;4917984;29;20047;-60
2022/12/29 03:22:26;;;;;;;3.00;1.83;;;;;;;;;;4917819;29;20044;-58
2022/12/29 03:25:20;;;;;;;3.63;2.03;;;;;;;;;;4917183;29;20051;-58
2022/12/29 03:27:52;;;;;;;3.20;1.70;;;;;;;;;;4917919;29;20134;-60
2022/12/29 03:30:20;;;;;;;4.07;1.70;;;;;;;;;;4917827;29;20043;-59
2022/12/29 03:32:55;;;;;;;3.85;1.83;;;;;;;;;;4917695;29;20052;-59
2022/12/29 03:35:27;;;;;;;2.45;1.67;;;;;;;;;;4917128;29;20055;-59
2022/12/29 03:38:11;;;;;;;2.40;1.38;;;;;;;;;;4917521;29;20043;-59
2022/12/29 03:40:39;;;;;;;2.80;1.75;;;;;;;;;;4934250;29;20070;-59
2022/12/29 03:43:05;;;;;;;4.03;2.40;;;;;;;;;;4917490;29;20408;-59
2022/12/29 03:45:34;;;;;;;2.88;1.90;;;;;;;;;;4916665;29;20047;-59
2022/12/29 03:48:01;;;;;;;4.63;1.45;;;;;;;;;;4934468;29;20518;-59
2022/12/29 03:50:29;;;;;;;3.80;1.60;;;;;;;;;;4917407;29;20048;-59
2022/12/29 03:52:57;;;;;;;3.00;1.77;;;;;;;;;;4917259;29;20040;-60
2022/12/29 03:55:25;;;;;;;2.72;1.60;;;;;;;;;;4917031;29;20052;-59
2022/12/29 03:57:52;;;;;;;3.28;1.80;;;;;;;;;;4917349;29;20048;-59
2022/12/29 04:00:29;;;;;;;1.88;1.50;;;;;;;;;;4917400;29;20560;-59
2022/12/29 04:02:56;;;;;;;3.38;1.67;;;;;;;;;;4917341;29;20056;-59
2022/12/29 04:05:23;;;;;;;1.88;1.70;;;;;;;;;;4934088;29;20138;-59
2022/12/29 04:07:52;;;;;;;2.25;1.58;;;;;;;;;;4917577;29;20035;-59
2022/12/29 04:10:19;;;;;;;2.65;1.55;;;;;;;;;;4917712;29;20131;-59
2022/12/29 04:12:48;;;;;;;1.65;1.50;;;;;;;;;;4917596;29;20419;-60
2022/12/29 04:15:14;;;;;;;2.25;1.60;;;;;;;;;;4917069;29;20051;-59
2022/12/29 04:17:41;;;;;;;4.50;1.55;;;;;;;;;;4935017;29;20052;-59
2022/12/29 04:23:01;;;;;;;3.42;1.65;;;;;;;;;;4917478;29;20292;-59
2022/12/29 04:25:28;;;;;;;3.17;1.45;;;;;;;;;;4916827;29;20070;-60
2022/12/29 04:27:54;;;;;;;4.07;1.52;;;;;;;;;;4934544;29;20452;-59
2022/12/29 04:30:56;;;;;;;2.70;1.60;;;;;;;;;;4917723;29;20199;-59
2022/12/29 04:33:31;;;;;;;1.73;1.58;;;;;;;;;;4917401;29;20059;-60
2022/12/29 04:35:57;;;;;;;2.10;1.50;;;;;;;;;;4916854;29;20051;-60
2022/12/29 04:38:24;;;;;;;2.75;1.60;;;;;;;;;;4917693;29;20472;-60
2022/12/29 04:40:51;;;;;;;4.45;1.77;;;;;;;;;;4917585;29;20048;-59
2022/12/29 04:43:22;;;;;;;2.95;1.45;;;;;;;;;;4917287;29;20052;-59
2022/12/29 04:46:11;;;;;;;2.42;1.50;;;;;;;;;;4919579;29;20103;-59
2022/12/29 04:48:45;;;;;;;2.85;1.60;;;;;;;;;;4917549;29;20050;-59
2022/12/29 04:51:24;;;;;;;3.97;1.50;;;;;;;;;;4904098;29;20077;-61
2022/12/29 04:53:51;;;;;;;2.85;1.63;;;;;;;;;;4937961;29;20040;-60
2022/12/29 04:56:17;;;;;;;3.13;1.60;;;;;;;;;;4920624;29;20048;-61
2022/12/29 04:58:44;;;;;;;2.63;1.50;;;;;;;;;;4921143;29;20048;-60
2022/12/29 05:01:11;;;;;;;4.32;1.45;;;;;;;;;;5323658;23;20026;-60
2022/12/29 05:03:39;;;;;;;4.72;1.85;;;;;;;;;;4918722;29;20468;-60
2022/12/29 05:06:06;;;;;;;2.63;1.58;;;;;;;;;;4920672;29;20048;-60
2022/12/29 05:08:33;;;;;;;1.70;1.60;;;;;;;;;;4920549;29;20067;-60
2022/12/29 05:11:01;;;;;;;2.42;1.45;;;;;;;;;;4920921;29;20107;-60
2022/12/29 05:13:28;;;;;;;4.18;1.55;;;;;;;;;;4920311;29;20427;-60
2022/12/29 05:15:54;;;;;;;2.15;1.77;;;;;;;;;;4946420;23;20043;-61
2022/12/29 05:18:22;;;;;;;2.20;1.17;;;;;;;;;;4904789;29;20040;-61
2022/12/29 05:20:49;;;;;;;2.15;1.02;;;;;;;;;;4920289;29;20044;-61
2022/12/29 05:23:18;;;;;;;4.20;1.75;;;;;;;;;;4920477;29;20051;-61
2022/12/29 05:25:50;;;;;;;1.70;1.50;;;;;;;;;;4919877;29;20044;-61
2022/12/29 05:28:27;;;;;;;3.38;1.58;;;;;;;;;;4920408;29;20123;-61
2022/12/29 05:31:02;;;;;;;3.78;1.80;;;;;;;;;;4920354;29;20044;-61
2022/12/29 05:33:29;;;;;;;2.80;1.67;;;;;;;;;;4920241;29;20067;-61
2022/12/29 05:35:57;;;;;;;2.78;1.50;;;;;;;;;;4920084;29;20051;-60
2022/12/29 05:38:23;;;;;;;2.97;1.90;;;;;;;;;;4920287;29;20134;-60
2022/12/29 05:40:50;;;;;;;3.67;1.92;;;;;;;;;;4920112;29;20040;-61
2022/12/29 05:43:36;;;;;;;4.15;1.83;;;;;;;;;;4937329;29;20055;-59
2022/12/29 05:46:19;;;;;;;3.50;1.90;;;;;;;;;;4919261;29;20389;-59
2022/12/29 05:48:57;;;;;;;5.93;1.92;;;;;;;;;;4937114;29;20111;-59
2022/12/29 05:51:31;;;;;;;;;;;;;;;;;;4905716;29;20135;-60
2022/12/29 05:53:57;;;;;;;3.08;1.98;;;;;;;;;;4919652;29;19929;-60
2022/12/29 05:56:24;;;;;;;2.72;2.08;;;;;;;;;;4918996;29;20500;-59
2022/12/29 05:58:55;;;;;;;4.05;1.88;;;;;;;;;;4919814;29;20523;-60
2022/12/29 06:01:22;;;;;;;3.55;1.70;;;;;;;;;;4920024;29;20051;-60
2022/12/29 06:03:49;;;;;;;5.57;2.22;;;;;;;;;;4936303;29;20505;-60
2022/12/29 06:06:18;;;;;;;3.50;2.00;;;;;;;;;;4918972;29;20050;-60
2022/12/29 06:08:45;;;;;;;3.78;1.95;;;;;;;;;;4919404;29;20083;-61
2022/12/29 06:11:12;;;;;;;5.63;1.95;;;;;;;;;;4919599;29;20048;-60
2022/12/29 06:13:43;;;;;;;3.75;2.20;;;;;;;;;;4919515;29;20043;-60
2022/12/29 06:16:11;;;;;;;3.17;1.90;;;;;;;;;;4918668;29;20048;-60
2022/12/29 06:18:38;;;;;;;4.38;1.70;;;;;;;;;;4919299;29;20411;-60
2022/12/29 06:21:06;;;;;;;5.75;2.30;;;;;;;;;;4919318;29;20078;-60
2022/12/29 06:23:34;;;;;;;3.08;2.35;;;;;;;;;;4919260;29;20101;-60
2022/12/29 06:26:02;;;;;;;6.63;1.80;;;;;;;;;;4902935;29;20039;-60
2022/12/29 06:28:29;;;;;;;3.60;2.03;;;;;;;;;;4919137;29;20058;-60
2022/12/29 06:30:57;;;;;;;3.38;2.10;;;;;;;;;;4936256;29;20496;-60
2022/12/29 06:33:23;;;;;;;4.10;1.90;;;;;;;;;;4918996;29;20048;-60
2022/12/29 06:35:50;;;;;;;1.80;1.50;;;;;;;;;;4918277;29;20138;-60
2022/12/29 06:38:16;;;;;;;3.22;1.90;;;;;;;;;;4936039;29;20054;-60
2022/12/29 06:40:44;;;;;;;4.07;1.90;;;;;;;;;;4919284;29;20070;-61
2022/12/29 06:43:30;;;;;;;4.15;1.95;;;;;;;;;;4921932;29;20058;-61
2022/12/29 06:46:02;;;;;;;4.60;2.05;;;;;;;;;;4935230;29;20074;-61
2022/12/29 06:48:28;;;;;;;8.52;2.63;;;;;;;;;;4936154;29;20091;-61
2022/12/29 06:50:55;;;;;;;4.68;1.77;;;;;;;;;;4936001;29;20044;-63
2022/12/29 06:53:21;;;;;;;3.70;1.73;;;;;;;;;;4935843;29;20059;-63
2022/12/29 06:55:48;;;;;;;3.72;1.90;;;;;;;;;;4935415;29;20163;-62
2022/12/29 06:58:14;;;;;;;2.58;1.65;;;;;;;;;;4936116;29;20119;-63
2022/12/29 07:00:41;;;;;;;4.32;2.22;;;;;;;;;;4936006;29;20075;-62
2022/12/29 07:03:07;;;;;;;4.15;1.63;;;;;;;;;;4936638;29;20066;-61
2022/12/29 07:05:34;;;;;;;4.45;2.38;;;;;;;;;;4935735;29;20090;-62
2022/12/29 07:08:00;;;;;;;3.65;1.92;;;;;;;;;;4935736;29;20063;-61
2022/12/29 07:10:27;;;;;;;4.20;2.20;;;;;;;;;;4935515;29;20047;-61
2022/12/29 07:12:54;;;;;;;3.88;2.03;;;;;;;;;;4935486;29;20050;-61
2022/12/29 07:15:20;;;;;;;8.27;2.17;;;;;;;;;;4916967;29;20040;-61
2022/12/29 07:17:46;;;;;;;4.50;2.15;;;;;;;;;;4918608;29;20046;-61
2022/12/29 07:20:13;;;;;;;7.55;2.50;;;;;;;;;;4935376;29;20039;-60
2022/12/29 07:22:39;;;;;;;3.28;2.10;;;;;;;;;;4935927;29;20131;-61
2022/12/29 07:25:06;;;;;;;4.43;2.50;;;;;;;;;;4938894;29;20046;-62
2022/12/29 07:27:32;;;;;;;4.80;2.30;;;;;;;;;;4936136;29;20039;-64
2022/12/29 07:29:59;;;;;;;6.47;1.88;;;;;;;;;;4918484;29;20051;-61
2022/12/29 07:32:25;;;;;;;6.60;2.42;;;;;;;;;;4935489;29;20044;-62
2022/12/29 07:34:52;;;;;;;4.90;2.47;;;;;;;;;;4935328;29;20507;-61
2022/12/29 07:37:18;;;;;;;3.35;2.33;;;;;;;;;;4935185;29;20055;-64
2022/12/29 07:39:45;;;;;;;4.20;2.33;;;;;;;;;;4935158;29;20051;-62
2022/12/29 07:42:11;;;;;;;7.88;2.88;;;;;;;;;;4935232;29;20055;-63
2022/12/29 07:44:43;;;;;;;4.63;2.30;;;;;;;;;;4918014;29;20139;-61
2022/12/29 07:47:18;;;;;;;3.63;2.25;;;;;;;;;;4934906;29;20052;-60
2022/12/29 07:49:44;;;;;;;3.42;2.28;;;;;;;;;;4902470;29;20048;-62
2022/12/29 07:52:11;;;;;;;7.93;2.65;;;;;;;;;;4918336;29;20051;-62
2022/12/29 07:54:38;;;;;;;3.60;2.90;;;;;;;;;;4934863;29;20044;-61
2022/12/29 07:57:04;;;;;;;4.97;2.72;;;;;;;;;;4917304;29;20052;-61
2022/12/29 07:59:31;;;;;;;5.00;2.38;;;;;;;;;;4935247;29;20048;-62
2022/12/29 08:01:57;;;;;;;3.67;2.30;;;;;;;;;;4918017;29;20048;-62
2022/12/29 08:04:24;;;;;;;4.82;2.75;;;;;;;;;;4917876;29;20067;-62
2022/12/29 08:06:50;;;;;;;8.70;2.70;;;;;;;;;;4934502;29;20440;-61
2022/12/29 08:09:17;;;;;;;3.25;2.45;;;;;;;;;;4934823;29;20040;-61
2022/12/29 08:11:49;;;;;;;4.72;2.50;;;;;;;;;;4934863;29;20048;-61
2022/12/29 08:14:16;;;;;;;4.60;2.72;;;;;;;;;;4934974;29;20123;-62
2022/12/29 08:16:42;;;;;;;9.32;2.67;;;;;;;;;;4901564;29;20095;-62
2022/12/29 08:19:10;;;;;;;6.80;3.17;;;;;;;;;;4918041;29;20058;-62
2022/12/29 08:21:36;;;;;;;5.20;3.10;;;;;;;;;;4935098;29;20404;-62
2022/12/29 08:24:03;;;;;;;6.43;3.00;;;;;;;;;;4934741;29;20127;-62
2022/12/29 08:26:29;;;;;;;5.07;2.47;;;;;;;;;;4919692;29;20078;-62
2022/12/29 08:28:56;;;;;;;4.80;3.05;;;;;;;;;;4938591;29;20048;-61
2022/12/29 08:31:23;;;;;;;5.82;3.33;;;;;;;;;;4938547;29;20493;-61
2022/12/29 08:33:49;;;;;;;4.60;2.60;;;;;;;;;;4938420;29;20401;-60
2022/12/29 08:36:16;;;;;;;3.70;2.78;;;;;;;;;;4937762;29;20416;-61
2022/12/29 08:38:42;;;;;;;6.18;3.75;;;;;;;;;;4938233;29;20044;-61
2022/12/29 08:41:09;;;;;;;5.28;3.08;;;;;;;;;;4938395;29;20047;-61
2022/12/29 08:43:35;;;;;;;5.22;3.88;;;;;;;;;;4938346;29;20047;-62
2022/12/29 08:46:02;;;;;;;4.93;3.30;;;;;;;;;;4937765;29;20043;-62
2022/12/29 08:48:28;;;;;;;5.32;3.00;;;;;;;;;;4938340;29;20122;-62
2022/12/29 08:50:54;;;;;;;6.03;3.25;;;;;;;;;;4938317;29;20520;-62
2022/12/29 08:53:21;;;;;;;5.68;3.00;;;;;;;;;;4938189;29;20036;-62
2022/12/29 08:55:54;;;;;;;5.68;3.10;;;;;;;;;;4938012;29;20103;-62
2022/12/29 08:58:31;;;;;;;6.63;3.70;;;;;;;;;;4921089;29;20047;-62
2022/12/29 09:00:58;;;;;;;5.57;2.95;;;;;;;;;;4937816;29;20040;-62
2022/12/29 09:03:26;;;;;;;8.65;3.22;;;;;;;;;;4920978;29;20356;-61
2022/12/29 09:06:12;;;;;;;7.80;3.20;;;;;;;;;;4937245;29;20568;-61
2022/12/29 09:08:39;;;;;;;5.93;2.75;;;;;;;;;;4937836;29;20090;-61
2022/12/29 09:11:10;;;;;;;6.32;2.78;;;;;;;;;;4923957;29;20043;-61
2022/12/29 09:13:37;;;;;;;5.07;2.83;;;;;;;;;;4943819;29;20090;-61
2022/12/29 09:16:03;;;;;;;6.65;2.80;;;;;;;;;;4940543;29;20382;-62
2022/12/29 09:18:30;;;;;;;8.43;3.40;;;;;;;;;;4939247;29;20099;-62
2022/12/29 09:20:57;;;;;;;6.45;3.38;;;;;;;;;;4938323;29;20044;-62
2022/12/29 09:23:24;;;;;;;3.72;2.70;;;;;;;;;;4938256;29;20047;-61
2022/12/29 09:25:51;;;;;;;5.18;2.80;;;;;;;;;;4937238;29;20051;-61
2022/12/29 09:28:18;;;;;;;5.53;2.92;;;;;;;;;;4921205;29;20047;-61
2022/12/29 09:30:44;;;;;;;5.30;2.65;;;;;;;;;;4921011;29;20472;-61
2022/12/29 09:33:11;;;;;;;4.68;3.00;;;;;;;;;;4920815;29;20050;-61
2022/12/29 09:35:40;;;;;;;4.03;3.00;;;;;;;;;;4920201;29;20051;-61
2022/12/29 09:38:07;;;;;;;4.68;2.78;;;;;;;;;;4919639;29;20413;-61
2022/12/29 09:40:33;;;;;;;3.83;3.20;;;;;;;;;;4937527;29;20043;-61
2022/12/29 09:43:00;;;;;;;3.85;2.65;;;;;;;;;;4937419;29;20050;-61
2022/12/29 09:45:36;;;;;;;4.85;3.33;;;;;;;;;;4919713;29;20448;-61
2022/12/29 09:48:03;;;;;;;4.53;2.88;;;;;;;;;;4937269;29;20051;-62
2022/12/29 09:50:37;;;;;;;3.70;2.78;;;;;;;;;;4920102;29;20086;-59
2022/12/29 09:53:19;;;;;;;4.47;2.70;;;;;;;;;;4937295;29;20047;-59
2022/12/29 09:55:51;;;;;;;6.55;4.07;;;;;;;;;;4936493;29;20051;-61
2022/12/29 09:58:29;;;;;;;4.45;2.92;;;;;;;;;;4937133;29;20040;-61
2022/12/29 10:01:04;;;;;;;3.42;2.40;;;;;;;;;;4937101;29;20070;-62
2022/12/29 10:03:46;;;;;;;6.10;3.28;;;;;;;;;;4936869;29;20408;-60
2022/12/29 10:06:13;;;;;;;3.58;2.90;;;;;;;;;;4936049;29;20051;-61
2022/12/29 10:08:43;;;;;;;3.92;2.55;;;;;;;;;;4936704;29;20449;-62
2022/12/29 10:11:19;;;;;;;5.28;3.25;;;;;;;;;;4936729;29;20051;-62
2022/12/29 10:13:54;;;;;;;4.18;3.13;;;;;;;;;;4936721;29;20120;-62
2022/12/29 10:16:46;;;;;;;3.40;2.58;;;;;;;;;;4918981;29;20412;-61
2022/12/29 10:19:25;;;;;;;4.22;2.35;;;;;;;;;;4919459;29;20114;-61
2022/12/29 10:21:58;;;;;;;4.40;2.60;;;;;;;;;;4919472;29;20147;-62
2022/12/29 10:24:26;;;;;;;7.95;4.00;;;;;;;;;;4919274;29;20054;-61
2022/12/29 10:26:53;;;;;;;4.35;3.10;;;;;;;;;;4935657;29;20044;-61
2022/12/29 10:29:22;;;;;;;5.13;3.17;;;;;;;;;;4919144;29;20139;-61
2022/12/29 10:31:58;;;;;;;4.35;3.10;;;;;;;;;;4936109;29;20047;-61
2022/12/29 10:34:27;;;;;;;5.07;3.13;;;;;;;;;;4936241;29;20114;-60
2022/12/29 10:36:57;;;;;;;2.67;2.20;;;;;;;;;;4935596;29;20445;-61
2022/12/29 10:39:30;;;;;;;2.25;1.77;;;;;;;;;;4936141;29;20124;-61
2022/12/29 10:42:25;;;;;;;2.53;2.33;;;;;;;;;;4936253;29;20048;-61
2022/12/29 10:44:53;;;;;;;3.90;1.77;;;;;;;;;;4919729;29;20075;-61
2022/12/29 10:47:23;;;;;;;2.58;1.73;;;;;;;;;;4918400;29;20067;-61
2022/12/29 10:49:50;;;;;;;2.88;1.58;;;;;;;;;;4935897;29;20052;-61
2022/12/29 10:52:17;;;;;;;2.83;1.85;;;;;;;;;;4936005;29;20492;-61
2022/12/29 10:54:56;;;;;;;1.25;1.05;;;;;;;;;;4918665;29;20047;-62
2022/12/29 10:57:32;;;;;;;2.67;1.42;;;;;;;;;;4935734;29;20063;-62
2022/12/29 10:59:58;;;;;;;2.22;1.13;;;;;;;;;;4938277;29;20070;-61
2022/12/29 11:02:37;;;;;;;2.03;1.13;;;;;;;;;;4922116;29;20055;-61
2022/12/29 11:05:10;;;;;;;1.73;1.10;;;;;;;;;;4939443;29;20048;-62
2022/12/29 11:07:36;;;;;;;1.52;1.10;;;;;;;;;;4941175;29;20047;-61
2022/12/29 11:10:26;;;;;;;1.80;1.17;;;;;;;;;;4923491;29;20047;-61
2022/12/29 11:13:00;;;;;;;1.52;1.25;;;;;;;;;;4938943;29;20110;-61
2022/12/29 11:15:27;;;;;;;3.80;1.67;;;;;;;;;;4938428;29;20122;-60
2022/12/29 11:17:56;;;;;;;2.22;1.63;;;;;;;;;;4922589;29;20047;-61
2022/12/29 11:20:34;;;;;;;5.25;1.58;;;;;;;;;;4938970;29;20075;-62
2022/12/29 11:23:02;;;;;;;3.53;1.95;;;;;;;;;;4936907;29;20048;-61
2022/12/29 11:25:29;;;;;;;2.75;1.60;;;;;;;;;;4936045;29;20051;-60
2022/12/29 11:27:55;;;;;;;2.72;1.75;;;;;;;;;;4935847;29;20051;-61
2022/12/29 11:30:26;;;;;;;4.63;1.98;;;;;;;;;;4936557;29;20043;-61
2022/12/29 11:32:53;;;;;;;3.63;1.55;;;;;;;;;;4937239;29;20059;-61
2022/12/29 11:35:34;;;;;;;4.57;2.55;;;;;;;;;;4935453;29;20048;-61
2022/12/29 11:38:01;;;;;;;5.93;3.17;;;;;;;;;;4918327;29;20075;-60
2022/12/29 11:40:28;;;;;;;5.03;3.05;;;;;;;;;;4916682;29;20509;-61
2022/12/29 11:43:04;;;;;;;4.80;2.60;;;;;;;;;;4933762;29;20048;-61
2022/12/29 11:45:33;;;;;;;3.08;1.98;;;;;;;;;;4933337;29;20052;-61
2022/12/29 11:48:12;;;;;;;3.25;1.70;;;;;;;;;;4933620;29;20134;-62
2022/12/29 11:50:40;;;;;;;5.60;1.77;;;;;;;;;;4917051;29;20481;-62
2022/12/29 11:53:13;;;;;;;3.30;1.70;;;;;;;;;;4917611;29;20043;-62
2022/12/29 11:55:42;;;;;;;3.63;2.15;;;;;;;;;;4934820;29;20048;-62
2022/12/29 11:58:14;;;;;;;3.20;1.27;;;;;;;;;;4934949;29;20089;-61
2022/12/29 12:00:40;;;;;;;3.13;1.70;;;;;;;;;;4934830;29;20047;-62
2022/12/29 12:03:13;;;;;;;5.38;2.55;;;;;;;;;;4935228;29;20524;-62
2022/12/29 12:05:46;;;;;;;3.55;1.77;;;;;;;;;;4917680;29;20056;-62
2022/12/29 12:08:17;;;;;;;2.88;1.70;;;;;;;;;;4934853;29;20148;-62
2022/12/29 12:10:50;;;;;;;3.10;1.83;;;;;;;;;;4918143;29;20044;-62
2022/12/29 12:13:38;;;;;;;3.80;2.15;;;;;;;;;;4917500;29;20044;-62
2022/12/29 12:16:09;;;;;;;2.75;1.27;;;;;;;;;;4916814;29;20386;-63
2022/12/29 12:18:48;;;;;;;4.82;2.03;;;;;;;;;;4917516;29;20107;-62
2022/12/29 12:21:24;;;;;;;2.85;1.75;;;;;;;;;;4934590;29;20055;-62
2022/12/29 12:23:58;;;;;;;4.75;1.80;;;;;;;;;;4917379;29;20056;-62
2022/12/29 12:26:32;;;;;;;4.47;1.80;;;;;;;;;;4916925;29;20414;-62
2022/12/29 12:29:08;;;;;;;5.05;1.88;;;;;;;;;;4934562;29;20055;-62
2022/12/29 12:31:43;;;;;;;6.03;2.00;;;;;;;;;;4917671;29;20048;-62
2022/12/29 12:34:13;;;;;;;3.65;1.80;;;;;;;;;;4934419;29;20535;-62
2022/12/29 12:37:03;;;;;;;5.22;1.63;;;;;;;;;;4933885;29;20131;-63
2022/12/29 12:39:29;;;;;;;3.28;1.70;;;;;;;;;;4924727;29;20523;-62
2022/12/29 12:42:05;;;;;;;4.38;1.55;;;;;;;;;;4934481;29;20075;-60
2022/12/29 12:44:34;;;;;;;2.42;1.33;;;;;;;;;;4934343;29;20055;-63
2022/12/29 12:47:13;;;;;;;4.30;2.15;;;;;;;;;;4916782;29;20048;-61
2022/12/29 12:49:46;;;;;;;4.47;2.20;;;;;;;;;;4934589;29;20039;-61
2022/12/29 12:52:12;;;;;;;1.88;1.17;;;;;;;;;;4918001;29;20044;-59
2022/12/29 12:54:42;;;;;;;3.78;1.50;;;;;;;;;;4934402;29;20058;-61
2022/12/29 12:57:15;;;;;;;3.05;1.20;;;;;;;;;;4917122;29;20052;-60
2022/12/29 13:00:02;;;;;;;2.97;0.93;;;;;;;;;;4918208;29;20052;-61
2022/12/29 13:02:31;;;;;;;3.63;1.10;;;;;;;;;;4934342;29;20051;-60
2022/12/29 13:05:19;;;;;;;2.95;1.08;;;;;;;;;;4933681;29;20229;-61
2022/12/29 13:08:02;;;;;;;4.87;1.33;;;;;;;;;;4916727;29;20048;-61
2022/12/29 13:10:51;;;;;;;2.55;1.10;;;;;;;;;;4934047;29;20052;-61
2022/12/29 13:13:24;;;;;;;2.90;1.13;;;;;;;;;;4899491;29;20114;-61
2022/12/29 13:15:59;;;;;;;2.60;1.00;;;;;;;;;;4936868;29;20417;-62
2022/12/29 13:18:45;;;;;;;2.45;1.08;;;;;;;;;;4939660;29;20075;-62
2022/12/29 13:21:30;;;;;;;3.28;0.95;;;;;;;;;;4923004;29;20556;-61
2022/12/29 13:24:02;;;;;;;2.28;1.02;;;;;;;;;;4938374;29;20067;-62
2022/12/29 13:26:34;;;;;;;3.67;1.33;;;;;;;;;;4937042;29;20048;-63
2022/12/29 13:29:13;;;;;;;1.88;1.00;;;;;;;;;;4920760;29;20040;-62
2022/12/29 13:31:40;;;;;;;2.00;1.00;;;;;;;;;;4920594;29;20500;-61
2022/12/29 13:34:15;;;;;;;1.95;1.00;;;;;;;;;;4920751;29;20393;-60
2022/12/29 13:36:43;;;;;;;1.85;1.20;;;;;;;;;;4937056;29;20043;-62
2022/12/29 13:39:39;;;;;;;4.40;1.80;;;;;;;;;;4937378;29;20111;-62
2022/12/29 13:42:06;;;;;;;2.75;1.10;;;;;;;;;;4921480;29;20338;-61
2022/12/29 13:44:38;;;;;;;3.78;1.20;;;;;;;;;;4937108;29;20099;-61
2022/12/29 13:47:13;;;;;;;7.72;1.60;;;;;;;;;;4919606;29;20052;-61
2022/12/29 13:49:39;;;;;;;3.30;1.30;;;;;;;;;;4937576;29;20050;-61
2022/12/29 13:52:08;;;;;;;5.05;1.48;;;;;;;;;;4937141;29;20040;-61
2022/12/29 13:54:40;;;;;;;3.63;1.70;;;;;;;;;;4936834;29;20040;-61
2022/12/29 13:57:15;;;;;;;2.08;1.20;;;;;;;;;;4936719;29;20059;-61
2022/12/29 13:59:59;;;;;;;5.40;1.52;;;;;;;;;;4920409;29;20056;-61
2022/12/29 14:02:56;;;;;;;4.20;1.60;;;;;;;;;;4937012;29;20047;-61
2022/12/29 14:05:23;;;;;;;3.15;1.20;;;;;;;;;;4936689;29;20055;-61
2022/12/29 14:07:57;;;;;;;3.28;1.20;;;;;;;;;;4936691;29;20044;-61
2022/12/29 14:10:35;;;;;;;4.50;1.52;;;;;;;;;;4920021;29;20047;-62
2022/12/29 14:13:06;;;;;;;2.83;1.30;;;;;;;;;;4937076;29;20405;-62
2022/12/29 14:15:40;;;;;;;2.70;1.25;;;;;;;;;;4935876;29;20043;-60
2022/12/29 14:18:07;;;;;;;3.60;1.40;;;;;;;;;;4936606;29;20048;-62
2022/12/29 14:20:34;;;;;;;4.05;1.95;;;;;;;;;;4936656;29;20040;-62
2022/12/29 14:23:15;;;;;;;5.15;3.70;;;;;;;;;;4936309;29;20043;-62
2022/12/29 14:25:59;;;;;;;1.95;1.20;;;;;;;;;;4935842;29;20381;-62
2022/12/29 14:28:30;;;;;;;2.95;1.15;;;;;;;;;;4936274;29;20047;-60
2022/12/29 14:30:58;;;;;;;2.50;1.10;;;;;;;;;;4919249;29;20048;-60
2022/12/29 14:33:26;;;;;;;5.03;1.15;;;;;;;;;;4936381;29;20035;-61
2022/12/29 14:35:53;;;;;;;2.88;1.20;;;;;;;;;;4935686;29;20047;-60
2022/12/29 14:38:21;;;;;;;4.95;1.45;;;;;;;;;;4919019;29;20107;-60
2022/12/29 14:40:48;;;;;;;4.50;1.30;;;;;;;;;;4935966;29;20107;-61
2022/12/29 14:43:25;;;;;;;3.95;1.15;;;;;;;;;;4935978;29;20059;-61
2022/12/29 14:45:56;;;;;;;3.47;1.17;;;;;;;;;;4935525;29;20230;-61
2022/12/29 14:48:52;;;;;;;3.17;1.17;;;;;;;;;;4918938;29;20174;-61
2022/12/29 14:51:30;;;;;;;2.00;1.10;;;;;;;;;;4919960;29;20067;-61
2022/12/29 14:53:57;;;;;;;2.88;1.02;;;;;;;;;;4918946;29;20047;-61
2022/12/29 14:56:27;;;;;;;3.70;1.30;;;;;;;;;;4935236;29;20040;-58
2022/12/29 14:58:56;;;;;;;2.63;0.98;;;;;;;;;;4919266;29;20416;-59
2022/12/29 15:01:23;;;;;;;5.82;1.40;;;;;;;;;;4935700;29;20048;-59
2022/12/29 15:03:51;;;;;;;5.07;1.60;;;;;;;;;;4918470;29;20497;-60
2022/12/29 15:06:21;;;;;;;6.57;1.70;;;;;;;;;;4935040;29;20055;-61
2022/12/29 15:09:04;;;;;;;3.72;1.15;;;;;;;;;;4935586;29;20099;-59
2022/12/29 15:11:39;;;;;;;3.33;1.30;;;;;;;;;;4918712;29;20048;-59
2022/12/29 15:14:24;;;;;;;3.92;1.40;;;;;;;;;;4935651;29;20408;-59
2022/12/29 15:16:51;;;;;;;7.53;1.95;;;;;;;;;;4935047;29;20046;-60
2022/12/29 15:19:24;;;;;;;2.97;1.50;;;;;;;;;;4935739;29;20078;-60
2022/12/29 15:21:52;;;;;;;2.33;1.20;;;;;;;;;;4935669;29;20055;-60
2022/12/29 15:24:18;;;;;;;4.07;1.58;;;;;;;;;;4935422;29;20047;-60
2022/12/29 15:26:47;;;;;;;5.80;1.65;;;;;;;;;;4934973;29;20052;-59
2022/12/29 15:29:31;;;;;;;3.25;1.70;;;;;;;;;;4935289;29;20050;-61
2022/12/29 15:32:00;;;;;;;4.20;1.20;;;;;;;;;;4935902;29;20040;-62
2022/12/29 15:34:29;;;;;;;1.98;1.20;;;;;;;;;;4937508;29;20076;-60
2022/12/29 15:36:56;;;;;;;3.10;1.20;;;;;;;;;;4919689;29;20484;-60
2022/12/29 15:39:29;;;;;;;3.85;1.70;;;;;;;;;;4936364;29;20094;-60
2022/12/29 15:41:59;;;;;;;5.25;1.80;;;;;;;;;;4936364;29;20385;-60
2022/12/29 15:44:32;;;;;;;7.97;1.90;;;;;;;;;;4935532;29;20412;-60
2022/12/29 15:47:02;;;;;;;5.32;1.55;;;;;;;;;;4935473;29;20044;-60